Capetan Vassilis — C6S2085 — position and weather

sailwx.info

Track history (hours):
 
Tides and Currents Weather Stations Pressure Air Temp Water Temp Dewpoint Dewpoint Depression Visibility Wind Speed Wind Dir Waves Ship Positions

Capetan Vassilis

Last reported at 2017-Apr-13 18:47 UTC. Time now 2017-Apr-24 05:31 UTC.
Position S 30°24' E 031°49'.
Warning: this ship's position is 10 days out of date.

Length 191 m; draft 11.7 m.

MMSI: 311552000.

Date/timePositionNaut miles runAvg speedWind from/ knotsBaromVisibWave heightAir tempDewpointWater temp
2017-Apr-13 18:47S 30°24' E 031°49'410.1
2017-Apr-13 18:25S 30°27' E 031°47'610.1
2017-Apr-13 17:49S 30°32' E 031°42'510.1
2017-Apr-13 17:19S 30°35' E 031°38'310.1
2017-Apr-13 17:00S 30°38' E 031°35'510.1
2017-Apr-13 16:30S 30°41' E 031°31'510.1
2017-Apr-13 16:00S 30°44' E 031°27'510.0
2017-Apr-13 15:30S 30°47' E 031°22'5 9.9
2017-Apr-13 15:00S 30°51' E 031°18'1010.0
2017-Apr-13 14:00S 30°57' E 031°09'510.3
2017-Apr-13 13:30S 31°00' E 031°04'510.8
2017-Apr-13 13:00S 31°04' E 030°59'711.0
2017-Apr-13 12:23S 31°08' E 030°53'810.8
2017-Apr-13 11:36S 31°14' E 030°46'110.6
2017-Apr-13 11:30S 31°15' E 030°45'510.6
2017-Apr-13 11:00S 31°18' E 030°40'510.3
2017-Apr-13 10:30S 31°21' E 030°36'5 9.8
2017-Apr-13 09:59S 31°25' E 030°31'  
Track history (hours):
 
Tides and Currents Weather Stations Pressure Air Temp Water Temp Dewpoint Dewpoint Depression Visibility Wind Speed Wind Dir Waves Ship Positions

Capetan Vassilis

Last reported at 2017-Apr-13 18:47 UTC. Time now 2017-Apr-24 05:31 UTC.
Position S 30°24' E 031°49'.
Warning: this ship's position is 10 days out of date.

Length 191 m; draft 11.7 m.

MMSI: 311552000.

Date/timePositionNaut miles runAvg speedWind from/ knotsBaromVisibWave heightAir tempDewpointWater temp
2017-Apr-13 18:47S 30°24' E 031°49'410.1
2017-Apr-13 18:25S 30°27' E 031°47'610.1
2017-Apr-13 17:49S 30°32' E 031°42'510.1
2017-Apr-13 17:19S 30°35' E 031°38'310.1
2017-Apr-13 17:00S 30°38' E 031°35'510.1
2017-Apr-13 16:30S 30°41' E 031°31'510.1
2017-Apr-13 16:00S 30°44' E 031°27'510.0
2017-Apr-13 15:30S 30°47' E 031°22'5 9.9
2017-Apr-13 15:00S 30°51' E 031°18'1010.0
2017-Apr-13 14:00S 30°57' E 031°09'510.3
2017-Apr-13 13:30S 31°00' E 031°04'510.8
2017-Apr-13 13:00S 31°04' E 030°59'711.0
2017-Apr-13 12:23S 31°08' E 030°53'810.8
2017-Apr-13 11:36S 31°14' E 030°46'110.6
2017-Apr-13 11:30S 31°15' E 030°45'510.6
2017-Apr-13 11:00S 31°18' E 030°40'510.3
2017-Apr-13 10:30S 31°21' E 030°36'5 9.8
2017-Apr-13 09:59S 31°25' E 030°31'  

Dump ship's entire track history